createdAt,value
2018-05-31T00:02:05.849Z,58.66
2018-05-31T00:04:39.652Z,59.27
2018-05-31T00:07:13.360Z,58.67
2018-05-31T00:09:46.857Z,58.92
2018-05-31T00:12:20.461Z,59.04
2018-05-31T00:14:54.159Z,59.33
2018-05-31T00:17:27.864Z,59.02
2018-05-31T00:20:01.714Z,58.90
2018-05-31T00:22:35.255Z,59.23
2018-05-31T00:25:08.824Z,59.68
2018-05-31T00:27:42.404Z,59.54
2018-05-31T00:30:16.251Z,59.66
2018-05-31T00:32:50.143Z,59.80
2018-05-31T00:35:23.942Z,59.56
2018-05-31T00:37:57.692Z,59.55
2018-05-31T00:40:31.420Z,59.93
2018-05-31T00:43:05.211Z,60.27
2018-05-31T00:45:39.004Z,60.17
2018-05-31T00:48:12.555Z,60.09
2018-05-31T00:50:46.305Z,60.15
2018-05-31T00:53:19.932Z,60.03
2018-05-31T00:56:05.568Z,59.86
2018-05-31T00:58:39.322Z,60.11
2018-05-31T01:01:12.963Z,60.15
2018-05-31T01:03:46.536Z,60.06
2018-05-31T01:06:20.328Z,59.64
2018-05-31T01:08:53.928Z,59.54
2018-05-31T01:11:27.728Z,59.67
2018-05-31T01:14:01.258Z,59.74
2018-05-31T01:16:34.935Z,59.32
2018-05-31T01:19:08.513Z,59.06
2018-05-31T01:21:42.258Z,59.15
2018-05-31T01:24:15.791Z,59.67
2018-05-31T01:26:49.558Z,59.66
2018-05-31T01:29:23.104Z,59.58
2018-05-31T01:31:56.717Z,59.53
2018-05-31T01:34:30.508Z,59.61
2018-05-31T01:37:04.200Z,59.50
2018-05-31T01:39:37.808Z,59.61
2018-05-31T01:42:11.472Z,59.82
2018-05-31T01:44:45.247Z,59.31
2018-05-31T01:47:19.068Z,59.20
2018-05-31T01:49:52.679Z,59.01
2018-05-31T01:52:26.313Z,58.96
2018-05-31T01:55:00.064Z,58.41
2018-05-31T01:57:33.635Z,58.63
2018-05-31T02:00:07.186Z,58.35
2018-05-31T02:02:40.969Z,51.32
2018-05-31T02:05:14.704Z,52.04
2018-05-31T02:07:48.304Z,52.14
2018-05-31T02:10:21.808Z,52.00
2018-05-31T02:12:55.403Z,51.96
2018-05-31T02:15:28.913Z,52.21
2018-05-31T02:18:02.528Z,56.19
2018-05-31T02:20:36.040Z,57.63
2018-05-31T02:23:09.886Z,57.68
2018-05-31T02:25:43.592Z,57.87
2018-05-31T02:28:17.372Z,57.65
2018-05-31T02:30:50.951Z,57.68
2018-05-31T02:33:24.699Z,58.21
2018-05-31T02:35:58.336Z,58.17
2018-05-31T02:38:32.101Z,57.88
2018-05-31T02:41:05.821Z,57.98
2018-05-31T02:43:39.565Z,58.14
2018-05-31T02:46:13.068Z,58.21
2018-05-31T02:48:46.858Z,58.05
2018-05-31T02:51:20.552Z,58.77
2018-05-31T02:53:54.341Z,58.86
2018-05-31T02:56:28.108Z,59.45
2018-05-31T02:59:01.784Z,60.10
2018-05-31T03:01:35.267Z,60.10
2018-05-31T03:04:08.859Z,60.42
2018-05-31T03:06:42.467Z,60.52
2018-05-31T03:09:16.096Z,60.37
2018-05-31T03:11:49.603Z,61.96
2018-05-31T03:14:23.368Z,61.84
2018-05-31T03:16:56.983Z,61.82
2018-05-31T03:19:30.575Z,62.15
2018-05-31T03:22:04.220Z,62.26
2018-05-31T03:24:38.012Z,62.41
2018-05-31T03:27:15.065Z,62.64
2018-05-31T03:29:48.680Z,63.10
2018-05-31T03:32:22.264Z,63.27
2018-05-31T03:34:55.812Z,63.53
2018-05-31T03:37:29.568Z,63.37
2018-05-31T03:40:03.215Z,63.65
2018-05-31T03:42:36.879Z,63.70
2018-05-31T03:45:10.600Z,64.00
2018-05-31T03:47:44.359Z,64.57
2018-05-31T03:50:17.911Z,65.00
2018-05-31T03:52:51.489Z,64.61
2018-05-31T03:55:25.131Z,64.33
2018-05-31T03:57:58.740Z,64.75
2018-05-31T04:00:32.264Z,64.81
2018-05-31T04:03:05.855Z,66.28
2018-05-31T04:05:39.444Z,65.43
2018-05-31T04:08:13.964Z,65.39
2018-05-31T04:10:47.552Z,65.85
2018-05-31T04:13:21.136Z,65.70
2018-05-31T04:15:54.871Z,65.47
2018-05-31T04:18:28.505Z,65.24
2018-05-31T04:21:02.532Z,65.34
2018-05-31T04:23:36.064Z,67.28
2018-05-31T04:26:09.881Z,68.07
2018-05-31T04:28:43.642Z,67.74
2018-05-31T04:31:17.458Z,67.45
2018-05-31T04:33:51.181Z,66.82
2018-05-31T04:36:24.836Z,66.64
2018-05-31T04:38:58.509Z,66.61
2018-05-31T04:41:32.312Z,65.70
2018-05-31T04:44:05.941Z,65.52
2018-05-31T04:46:39.708Z,64.63
2018-05-31T04:49:13.370Z,64.59
2018-05-31T04:51:47.176Z,63.54
2018-05-31T04:54:20.740Z,63.26
2018-05-31T04:56:54.621Z,62.99
2018-05-31T04:59:28.340Z,62.19
2018-05-31T05:02:02.124Z,62.60
2018-05-31T05:04:35.857Z,61.49
2018-05-31T05:07:09.552Z,62.90
2018-05-31T05:09:43.068Z,63.19
2018-05-31T05:12:16.673Z,62.35
2018-05-31T05:14:50.254Z,60.75
2018-05-31T05:17:24.085Z,61.15
2018-05-31T05:19:57.798Z,61.16
2018-05-31T05:22:31.377Z,61.10
2018-05-31T05:25:05.080Z,59.30
2018-05-31T05:27:38.889Z,59.74
2018-05-31T05:30:12.558Z,58.84
2018-05-31T05:32:46.304Z,59.21
2018-05-31T05:35:20.036Z,57.07
2018-05-31T05:37:53.817Z,56.34
2018-05-31T05:40:27.544Z,56.92
2018-05-31T05:43:01.253Z,55.83
2018-05-31T05:45:34.840Z,56.97
2018-05-31T05:48:08.649Z,56.31
2018-05-31T05:50:42.260Z,56.90
2018-05-31T05:53:16.007Z,56.64
2018-05-31T05:55:49.734Z,55.07
2018-05-31T05:58:23.439Z,54.14
2018-05-31T06:00:57.141Z,53.64
2018-05-31T06:03:30.845Z,52.35
2018-05-31T06:06:04.545Z,52.56
2018-05-31T06:08:38.363Z,52.01
2018-05-31T06:11:12.222Z,53.05
2018-05-31T06:13:45.921Z,51.77
2018-05-31T06:16:19.601Z,51.80
2018-05-31T06:18:53.259Z,51.71
2018-05-31T06:21:26.953Z,51.10
2018-05-31T06:24:00.588Z,51.40
2018-05-31T06:26:34.261Z,49.66
2018-05-31T06:29:08.072Z,49.64
2018-05-31T06:31:41.684Z,48.17
2018-05-31T06:34:15.296Z,45.78
2018-05-31T06:36:49.067Z,46.12
2018-05-31T06:39:22.745Z,44.56
2018-05-31T06:41:56.437Z,41.81
2018-05-31T06:44:30.016Z,42.34
2018-05-31T06:47:03.809Z,41.42
2018-05-31T06:49:37.525Z,41.71
2018-05-31T06:52:11.089Z,42.21
2018-05-31T06:54:44.818Z,41.44
2018-05-31T06:57:18.421Z,41.92
2018-05-31T06:59:52.137Z,42.54
2018-05-31T07:02:25.804Z,43.15
2018-05-31T07:04:59.457Z,42.53
2018-05-31T07:07:33.021Z,42.33
2018-05-31T07:10:06.745Z,43.31
2018-05-31T07:12:40.430Z,44.68
2018-05-31T07:15:14.034Z,44.05
2018-05-31T07:17:47.556Z,43.27
2018-05-31T07:20:21.220Z,40.71
2018-05-31T07:22:55.042Z,40.64
2018-05-31T07:25:28.773Z,42.05
2018-05-31T07:28:02.276Z,40.95
2018-05-31T07:30:35.865Z,40.66
2018-05-31T07:33:09.578Z,40.14
2018-05-31T07:35:43.283Z,41.37
2018-05-31T07:38:16.988Z,37.71
2018-05-31T07:40:50.564Z,39.02
2018-05-31T07:43:24.306Z,40.84
2018-05-31T07:45:57.997Z,44.12
2018-05-31T07:48:31.915Z,44.02
2018-05-31T07:51:05.508Z,43.00
2018-05-31T07:53:39.267Z,43.84
2018-05-31T07:56:12.901Z,47.62
2018-05-31T07:58:46.465Z,48.18
2018-05-31T08:01:20.225Z,49.10
2018-05-31T08:03:53.948Z,47.91
2018-05-31T08:06:27.656Z,50.21
2018-05-31T08:09:01.230Z,49.42
2018-05-31T08:11:34.961Z,49.66
2018-05-31T08:14:08.577Z,50.75
2018-05-31T08:16:42.309Z,50.18
2018-05-31T08:19:16.224Z,49.34
2018-05-31T08:21:49.865Z,52.55
2018-05-31T08:24:23.449Z,51.94
2018-05-31T08:26:57.161Z,52.01
2018-05-31T08:29:30.776Z,52.21
2018-05-31T08:32:04.332Z,51.00
2018-05-31T08:34:38.100Z,52.75
2018-05-31T08:37:11.800Z,51.85
2018-05-31T08:39:45.369Z,52.10
2018-05-31T08:42:19.044Z,52.10
2018-05-31T08:44:52.795Z,52.87
2018-05-31T08:47:27.264Z,52.33
2018-05-31T08:50:00.832Z,51.04
2018-05-31T08:52:34.536Z,51.26
2018-05-31T08:55:08.329Z,51.64
2018-05-31T08:57:41.840Z,51.46
2018-05-31T09:00:15.517Z,51.90
2018-05-31T09:02:49.224Z,51.58
2018-05-31T09:05:22.877Z,50.17
2018-05-31T09:07:56.807Z,51.82
2018-05-31T09:10:30.460Z,50.27
2018-05-31T09:13:04.210Z,51.29
2018-05-31T09:15:38.077Z,50.07
2018-05-31T09:18:11.685Z,50.64
2018-05-31T09:20:45.278Z,49.86
2018-05-31T09:23:18.986Z,49.42
2018-05-31T09:25:52.653Z,48.38
2018-05-31T09:28:26.357Z,48.02
2018-05-31T09:31:00.213Z,46.52
2018-05-31T09:33:33.859Z,45.84
2018-05-31T09:36:07.580Z,45.09
2018-05-31T09:38:41.187Z,45.23
2018-05-31T09:41:14.881Z,44.16
2018-05-31T09:43:48.368Z,44.28
2018-05-31T09:46:22.057Z,42.53
2018-05-31T09:48:55.730Z,44.62
2018-05-31T09:51:29.289Z,45.29
2018-05-31T09:54:02.960Z,44.44
2018-05-31T09:56:36.696Z,40.48
2018-05-31T09:59:10.695Z,37.68
2018-05-31T10:01:44.256Z,35.41
2018-05-31T10:04:17.929Z,33.72
2018-05-31T10:06:51.478Z,33.72
2018-05-31T10:09:25.070Z,30.59
2018-05-31T10:11:58.736Z,37.99
2018-05-31T10:14:32.267Z,41.48
2018-05-31T10:17:05.926Z,41.12
2018-05-31T10:19:39.528Z,41.98
2018-05-31T10:22:13.037Z,42.46
2018-05-31T10:24:46.587Z,40.33
2018-05-31T10:27:20.316Z,40.29
2018-05-31T10:29:54.092Z,42.10
2018-05-31T10:32:27.669Z,41.76
2018-05-31T10:35:01.355Z,41.28
2018-05-31T10:37:35.145Z,42.06
2018-05-31T10:40:08.708Z,43.20
2018-05-31T10:42:42.528Z,46.79
2018-05-31T10:45:16.300Z,47.45
2018-05-31T10:47:49.872Z,46.76
2018-05-31T10:50:23.495Z,46.14
2018-05-31T10:52:57.000Z,44.82
2018-05-31T10:55:30.568Z,41.27
2018-05-31T10:58:04.112Z,37.32
2018-05-31T11:00:37.639Z,36.74
2018-05-31T11:03:11.466Z,33.07
2018-05-31T11:05:45.025Z,32.10
2018-05-31T11:08:18.794Z,31.31
2018-05-31T11:10:52.503Z,33.71
2018-05-31T11:13:26.104Z,34.79
2018-05-31T11:15:59.861Z,35.03
2018-05-31T11:18:33.565Z,35.89
2018-05-31T11:21:07.112Z,32.43
2018-05-31T11:23:40.690Z,30.39
2018-05-31T11:26:14.237Z,28.40
2018-05-31T11:28:47.743Z,31.60
2018-05-31T11:31:21.494Z,33.35
2018-05-31T11:33:55.619Z,32.14
2018-05-31T11:36:29.250Z,30.30
2018-05-31T11:39:02.820Z,30.78
2018-05-31T11:41:36.359Z,31.13
2018-05-31T11:44:09.943Z,33.98
2018-05-31T11:46:43.553Z,32.67
2018-05-31T11:49:17.275Z,32.02
2018-05-31T11:51:51.016Z,34.67
2018-05-31T11:54:24.812Z,37.44
2018-05-31T11:56:58.447Z,38.53
2018-05-31T11:59:31.992Z,39.83
2018-05-31T12:02:05.731Z,44.06
2018-05-31T12:04:39.531Z,41.65
2018-05-31T12:07:13.195Z,39.24
2018-05-31T12:09:46.835Z,42.60
2018-05-31T12:12:20.599Z,43.73
2018-05-31T12:14:54.192Z,42.86
2018-05-31T12:17:27.967Z,43.39
2018-05-31T12:20:01.347Z,45.44
2018-05-31T12:22:35.017Z,43.46
2018-05-31T12:25:08.679Z,42.65
2018-05-31T12:27:42.441Z,43.07
2018-05-31T12:30:15.969Z,43.95
2018-05-31T12:32:49.520Z,43.38
2018-05-31T12:35:23.270Z,42.50
2018-05-31T12:37:56.910Z,42.91
2018-05-31T12:40:30.536Z,43.27
2018-05-31T12:43:04.139Z,43.85
2018-05-31T12:45:37.791Z,42.87
2018-05-31T12:48:11.387Z,43.64
2018-05-31T12:50:44.954Z,42.38
2018-05-31T12:53:18.480Z,42.14
2018-05-31T12:55:52.147Z,43.14
2018-05-31T12:58:25.711Z,43.45
2018-05-31T13:00:59.356Z,42.46
2018-05-31T13:03:32.999Z,42.23
2018-05-31T13:06:06.628Z,42.57
2018-05-31T13:08:40.176Z,39.72
2018-05-31T13:11:13.948Z,40.71
2018-05-31T13:13:47.538Z,42.64
2018-05-31T13:16:21.304Z,42.68
2018-05-31T13:18:55.041Z,42.11
2018-05-31T13:21:28.686Z,42.01
2018-05-31T13:24:02.230Z,40.60
2018-05-31T13:26:35.797Z,39.66
2018-05-31T13:29:09.390Z,41.12
2018-05-31T13:31:42.880Z,39.44
2018-05-31T13:34:16.416Z,40.40
2018-05-31T13:36:50.119Z,41.23
2018-05-31T13:39:23.638Z,41.04
2018-05-31T13:41:57.280Z,40.47
2018-05-31T13:44:31.678Z,41.63
2018-05-31T13:47:05.376Z,43.47
2018-05-31T13:49:38.933Z,41.70
2018-05-31T13:52:12.783Z,40.99
2018-05-31T13:54:46.416Z,41.92
2018-05-31T13:57:20.137Z,40.47
2018-05-31T13:59:53.691Z,41.57
2018-05-31T14:02:27.164Z,41.71
2018-05-31T14:05:00.700Z,42.34
2018-05-31T14:07:34.351Z,40.88
2018-05-31T14:10:07.835Z,40.70
2018-05-31T14:12:41.584Z,41.04
2018-05-31T14:15:15.220Z,40.76
2018-05-31T14:17:48.972Z,41.72
2018-05-31T14:20:22.551Z,41.77
2018-05-31T14:22:56.143Z,41.34
2018-05-31T14:25:29.708Z,40.89
2018-05-31T14:28:03.400Z,41.03
2018-05-31T14:30:36.940Z,39.85
2018-05-31T14:33:10.708Z,38.14
2018-05-31T14:35:44.341Z,34.33
2018-05-31T14:38:18.205Z,35.80
2018-05-31T14:40:52.067Z,36.17
2018-05-31T14:43:25.653Z,35.53
2018-05-31T14:45:59.280Z,34.95
2018-05-31T14:48:32.931Z,33.50
2018-05-31T14:51:06.415Z,35.46
2018-05-31T14:53:40.140Z,35.76
2018-05-31T14:56:13.804Z,35.54
2018-05-31T14:58:47.562Z,36.11
2018-05-31T15:01:21.135Z,34.52
2018-05-31T15:03:54.855Z,36.35
2018-05-31T15:06:28.387Z,36.33
2018-05-31T15:09:02.012Z,35.35
2018-05-31T15:11:35.563Z,35.67
2018-05-31T15:14:09.172Z,35.04
2018-05-31T15:16:42.817Z,35.81
2018-05-31T15:19:16.410Z,37.18
2018-05-31T15:21:50.061Z,37.51
2018-05-31T15:24:23.631Z,37.01
2018-05-31T15:26:57.340Z,37.01
2018-05-31T15:29:30.920Z,36.56
2018-05-31T15:32:04.471Z,36.90
2018-05-31T15:34:38.067Z,36.17
2018-05-31T15:37:11.608Z,38.28
2018-05-31T15:39:45.416Z,36.65
2018-05-31T15:42:18.968Z,37.13
2018-05-31T15:44:52.698Z,37.45
2018-05-31T15:47:26.699Z,37.87
2018-05-31T15:50:00.395Z,36.58
2018-05-31T15:52:33.983Z,36.89
2018-05-31T15:55:07.736Z,38.19
2018-05-31T15:57:41.340Z,37.70
2018-05-31T16:00:15.021Z,33.55
2018-05-31T16:02:48.645Z,38.25
2018-05-31T16:05:22.340Z,39.90
2018-05-31T16:07:55.876Z,39.18
2018-05-31T16:10:29.452Z,39.83
2018-05-31T16:13:03.055Z,39.99
2018-05-31T16:15:36.834Z,38.85
2018-05-31T16:18:10.388Z,39.67
2018-05-31T16:20:44.116Z,39.32
2018-05-31T16:23:17.639Z,40.61
2018-05-31T16:25:51.295Z,41.24
2018-05-31T16:28:24.828Z,41.06
2018-05-31T16:30:58.371Z,40.93
2018-05-31T16:33:32.014Z,41.44
2018-05-31T16:36:05.689Z,42.42
2018-05-31T16:38:39.217Z,44.07
2018-05-31T16:41:12.964Z,44.86
2018-05-31T16:43:46.697Z,46.43
2018-05-31T16:46:20.300Z,46.77
2018-05-31T16:48:53.836Z,46.39
2018-05-31T16:51:27.604Z,46.31
2018-05-31T16:54:01.148Z,46.22
2018-05-31T16:56:34.643Z,47.33
2018-05-31T16:59:08.199Z,47.61
2018-05-31T17:01:41.963Z,47.54
2018-05-31T17:04:15.743Z,47.46
2018-05-31T17:06:49.515Z,47.23
2018-05-31T17:09:23.172Z,46.30
2018-05-31T17:11:56.652Z,46.77
2018-05-31T17:14:30.227Z,46.93
2018-05-31T17:17:03.839Z,47.19
2018-05-31T17:19:37.581Z,46.45
2018-05-31T17:22:11.087Z,47.07
2018-05-31T17:24:44.764Z,47.81
2018-05-31T17:27:18.396Z,47.94
2018-05-31T17:29:52.152Z,47.80
2018-05-31T17:32:25.700Z,47.08
2018-05-31T17:34:59.349Z,47.91
2018-05-31T17:37:32.948Z,47.16
2018-05-31T17:40:06.455Z,47.76
2018-05-31T17:42:40.170Z,47.30
2018-05-31T17:45:13.939Z,47.95
2018-05-31T17:47:47.706Z,47.49
2018-05-31T17:50:21.452Z,47.75
2018-05-31T17:52:54.943Z,48.02
2018-05-31T17:55:28.503Z,48.21
2018-05-31T17:58:02.008Z,48.19
2018-05-31T18:00:35.637Z,48.88
2018-05-31T18:03:09.388Z,49.31
2018-05-31T18:05:43.167Z,49.39
2018-05-31T18:08:16.812Z,49.58
2018-05-31T18:10:50.457Z,50.14
2018-05-31T18:13:24.032Z,51.13
2018-05-31T18:15:57.789Z,51.72
2018-05-31T18:18:31.544Z,52.49
2018-05-31T18:21:05.045Z,51.49
2018-05-31T18:23:38.624Z,52.13
2018-05-31T18:26:12.179Z,53.36
2018-05-31T18:28:45.656Z,53.00
2018-05-31T18:31:19.580Z,53.07
2018-05-31T18:33:53.140Z,53.00
2018-05-31T18:36:26.948Z,52.84
2018-05-31T18:39:00.752Z,53.57
2018-05-31T18:41:34.274Z,53.41
2018-05-31T18:44:07.808Z,54.04
2018-05-31T18:46:41.337Z,54.13
2018-05-31T18:49:15.112Z,54.51
2018-05-31T18:51:48.770Z,54.19
2018-05-31T18:54:22.547Z,54.88
2018-05-31T18:57:13.420Z,54.39
2018-05-31T18:59:47.164Z,54.55
2018-05-31T19:02:20.664Z,54.75
2018-05-31T19:04:54.184Z,55.82
2018-05-31T19:07:27.784Z,55.29
2018-05-31T19:10:01.568Z,54.63
2018-05-31T19:12:41.108Z,54.30
2018-05-31T19:15:21.632Z,54.46
2018-05-31T19:17:48.592Z,54.13
2018-05-31T19:20:22.224Z,54.73
2018-05-31T19:22:55.844Z,54.65
2018-05-31T19:25:29.456Z,55.75
2018-05-31T19:28:02.976Z,54.02
2018-05-31T19:30:42.108Z,53.95
2018-05-31T19:33:15.924Z,54.89
2018-05-31T19:35:55.048Z,54.84
2018-05-31T19:38:28.701Z,55.02
2018-05-31T19:41:02.380Z,55.47
2018-05-31T19:43:41.668Z,56.85
2018-05-31T19:46:38.715Z,57.31
2018-05-31T19:49:12.339Z,57.31
2018-05-31T19:51:51.563Z,58.58
2018-05-31T19:54:25.230Z,58.19
2018-05-31T20:00:03.728Z,59.25
2018-05-31T20:02:43.093Z,58.69
2018-05-31T20:05:16.887Z,58.75
2018-05-31T20:07:50.559Z,58.99
2018-05-31T20:10:24.083Z,59.24
2018-05-31T20:12:57.844Z,58.82
2018-05-31T20:15:31.372Z,59.48
2018-05-31T20:18:04.997Z,59.72
2018-05-31T20:20:38.532Z,60.32
2018-05-31T20:23:12.083Z,60.77
2018-05-31T20:25:45.591Z,61.02
2018-05-31T20:28:19.113Z,61.60
2018-05-31T20:30:52.748Z,61.32
2018-05-31T20:33:26.272Z,62.25
2018-05-31T20:35:59.804Z,62.37
2018-05-31T20:38:33.347Z,62.38
2018-05-31T20:41:06.836Z,63.02
2018-05-31T20:43:40.359Z,63.14
2018-05-31T20:46:13.944Z,63.56
2018-05-31T20:48:47.516Z,64.20
2018-05-31T20:51:21.299Z,64.29
2018-05-31T20:53:54.804Z,64.22
2018-05-31T20:56:28.328Z,64.78
2018-05-31T20:59:01.811Z,64.91
2018-05-31T21:01:35.566Z,64.99
2018-05-31T21:04:09.107Z,65.50
2018-05-31T21:06:43.026Z,66.46
2018-05-31T21:09:16.820Z,66.93
2018-05-31T21:11:50.329Z,67.38
2018-05-31T21:14:24.035Z,67.13
2018-05-31T21:16:57.818Z,67.26
2018-05-31T21:19:31.332Z,67.32
2018-05-31T21:22:04.998Z,67.02
2018-05-31T21:24:38.742Z,66.52
2018-05-31T21:27:12.297Z,66.89
2018-05-31T21:29:45.792Z,67.15
2018-05-31T21:32:19.364Z,67.04
2018-05-31T21:34:53.003Z,67.62
2018-05-31T21:37:26.564Z,67.79
2018-05-31T21:40:00.181Z,67.98
2018-05-31T21:42:33.819Z,68.05
2018-05-31T21:45:07.420Z,68.62
2018-05-31T21:47:41.003Z,68.64
2018-05-31T21:50:14.571Z,68.46
2018-05-31T21:52:48.115Z,68.52
2018-05-31T21:55:21.620Z,68.97
2018-05-31T21:57:55.267Z,69.26
2018-05-31T22:03:25.684Z,68.92
2018-05-31T22:05:59.287Z,69.16
2018-05-31T22:08:32.861Z,69.04
2018-05-31T22:11:06.415Z,69.29
2018-05-31T22:13:39.943Z,69.74
2018-05-31T22:16:13.539Z,69.29
2018-05-31T22:18:47.099Z,69.65
2018-05-31T22:21:20.891Z,70.18
2018-05-31T22:23:54.471Z,69.43
2018-05-31T22:26:28.101Z,69.35
2018-05-31T22:29:01.680Z,68.97
2018-05-31T22:31:35.304Z,68.85
2018-05-31T22:34:08.860Z,68.59
2018-05-31T22:36:42.432Z,68.83
2018-05-31T22:39:15.932Z,69.29
2018-05-31T22:41:49.488Z,69.82
2018-05-31T22:44:23.104Z,69.70
2018-05-31T22:46:56.862Z,69.92
2018-05-31T22:49:30.444Z,70.46
2018-05-31T22:52:04.163Z,70.57
2018-05-31T22:54:37.692Z,71.06
2018-05-31T22:57:11.419Z,71.03
2018-05-31T22:59:45.032Z,70.73
2018-05-31T23:02:18.820Z,70.73
2018-05-31T23:04:52.584Z,71.61
2018-05-31T23:07:26.256Z,71.95
2018-05-31T23:09:59.788Z,72.08
2018-05-31T23:12:33.477Z,72.39
2018-05-31T23:15:07.148Z,71.94
2018-05-31T23:17:40.719Z,72.19
2018-05-31T23:20:14.352Z,72.04
2018-05-31T23:22:47.872Z,71.30
2018-05-31T23:25:21.537Z,71.64
2018-05-31T23:27:55.319Z,72.18
2018-05-31T23:30:29.080Z,72.44
2018-05-31T23:33:02.681Z,72.05
2018-05-31T23:35:36.285Z,72.39
2018-05-31T23:38:09.735Z,72.69
2018-05-31T23:40:43.323Z,73.04
2018-05-31T23:43:16.956Z,73.45
2018-05-31T23:45:50.525Z,73.03
2018-05-31T23:48:24.173Z,72.87
2018-05-31T23:50:57.719Z,73.37
2018-05-31T23:53:31.471Z,73.89
2018-05-31T23:56:04.976Z,73.96
2018-05-31T23:58:38.584Z,73.68
